Time;durP1;ratioP1;P1;durP2;ratioP2;P2;SDS_P1;SDS_P2;PMS_P1;PMS_P2;Temp;Humidity;BMP_temperature;BMP_pressure;BME280_temperature;BME280_humidity;BME280_pressure;Samples;Min_cycle;Max_cycle;Signal;HPM_P1;HPM_P2
2021/10/18 00:01:40;;;;;;;11.17;3.43;;;10.10;99.90;;;;;;5090761;28;20188;-69
2021/10/18 00:04:06;;;;;;;2.60;2.40;;;10.10;99.90;;;;;;5090689;28;20224;-68
2021/10/18 00:06:32;;;;;;;2.90;2.60;;;10.00;99.90;;;;;;5091822;28;20520;-69
2021/10/18 00:08:58;;;;;;;4.50;3.20;;;10.10;99.90;;;;;;5092442;28;20182;-69
2021/10/18 00:11:24;;;;;;;3.60;3.30;;;10.00;99.90;;;;;;5091991;28;20398;-69
2021/10/18 00:13:52;;;;;;;5.80;2.70;;;10.00;99.90;;;;;;5091849;28;20453;-68
2021/10/18 00:16:18;;;;;;;8.13;3.30;;;10.00;99.90;;;;;;5090489;28;20420;-69
2021/10/18 00:18:43;;;;;;;3.07;2.37;;;10.10;99.90;;;;;;5091759;28;20428;-69
2021/10/18 00:21:10;;;;;;;5.87;2.50;;;10.10;99.90;;;;;;5091641;28;20174;-69
2021/10/18 00:23:35;;;;;;;3.47;3.27;;;10.10;99.90;;;;;;5091298;28;20536;-70
2021/10/18 00:26:01;;;;;;;3.93;3.10;;;10.10;99.90;;;;;;5091866;28;20404;-69
2021/10/18 00:28:26;;;;;;;4.53;4.13;;;10.10;99.90;;;;;;5091222;28;20194;-68
2021/10/18 00:30:52;;;;;;;9.63;3.73;;;10.00;99.90;;;;;;5091916;28;20161;-69
2021/10/18 00:33:17;;;;;;;7.27;4.80;;;10.10;99.90;;;;;;5091582;28;20698;-69
2021/10/18 00:35:43;;;;;;;4.30;3.90;;;10.00;99.90;;;;;;5091337;28;20930;-69
2021/10/18 00:38:09;;;;;;;3.70;2.77;;;10.00;99.90;;;;;;5090238;28;20189;-70
2021/10/18 00:40:37;;;;;;;5.73;4.07;;;10.00;99.90;;;;;;5091432;28;20671;-68
2021/10/18 00:43:03;;;;;;;5.67;3.73;;;10.10;99.90;;;;;;5091484;28;20203;-68
2021/10/18 00:45:29;;;;;;;10.43;4.13;;;10.10;99.90;;;;;;5091341;28;20493;-69
2021/10/18 00:47:58;;;;;;;4.57;3.63;;;10.10;99.90;;;;;;5091442;28;20934;-68
2021/10/18 00:50:24;;;;;;;6.60;3.67;;;10.00;99.90;;;;;;5091289;28;20184;-70
2021/10/18 00:52:50;;;;;;;6.30;3.67;;;10.00;99.90;;;;;;5091295;28;20404;-68
2021/10/18 00:55:15;;;;;;;4.83;3.27;;;10.00;99.90;;;;;;5090125;28;20760;-70
2021/10/18 00:57:41;;;;;;;4.13;3.53;;;10.00;99.90;;;;;;5091269;28;20428;-67
2021/10/18 01:00:08;;;;;;;3.97;3.50;;;10.00;99.90;;;;;;5091295;28;20173;-68
2021/10/18 01:02:33;;;;;;;4.10;3.50;;;10.00;99.90;;;;;;5091072;28;20395;-70
2021/10/18 01:04:59;;;;;;;3.97;3.37;;;10.00;99.90;;;;;;5091051;28;20442;-70
2021/10/18 01:07:25;;;;;;;5.37;3.90;;;10.00;99.90;;;;;;5091145;28;20181;-69
2021/10/18 01:09:51;;;;;;;4.67;3.17;;;10.00;99.90;;;;;;5090975;28;20176;-69
2021/10/18 01:12:16;;;;;;;6.97;3.07;;;10.00;99.90;;;;;;5089054;28;20427;-69
2021/10/18 01:14:42;;;;;;;3.10;2.80;;;10.00;99.90;;;;;;5091024;28;20169;-69
2021/10/18 01:17:07;;;;;;;3.60;2.93;;;10.00;99.90;;;;;;5077594;28;20202;-69
2021/10/18 01:19:33;;;;;;;3.17;2.70;;;10.00;99.90;;;;;;5074879;28;20189;-69
2021/10/18 01:22:01;;;;;;;3.83;3.43;;;10.00;99.90;;;;;;5089433;28;20178;-70
2021/10/18 01:24:32;;;;;;;3.87;2.50;;;10.00;99.90;;;;;;5089440;28;20238;-69
2021/10/18 01:26:57;;;;;;;3.87;3.30;;;10.10;99.90;;;;;;5069161;28;20470;-69
2021/10/18 01:29:23;;;;;;;5.70;3.53;;;10.10;99.90;;;;;;5069485;28;20400;-69
2021/10/18 01:31:49;;;;;;;5.03;4.53;;;10.10;99.90;;;;;;5069251;28;20166;-70
2021/10/18 01:34:14;;;;;;;3.50;3.10;;;10.00;99.90;;;;;;5083498;28;20212;-69
2021/10/18 01:36:42;;;;;;;3.27;2.93;;;10.00;99.90;;;;;;5092874;28;20217;-69
2021/10/18 01:39:08;;;;;;;4.50;3.20;;;10.10;99.90;;;;;;5089849;28;20426;-69
2021/10/18 01:41:33;;;;;;;5.40;3.70;;;10.10;99.90;;;;;;5073057;28;20408;-71
2021/10/18 01:43:59;;;;;;;5.10;4.03;;;10.10;99.90;;;;;;5072858;28;20202;-69
2021/10/18 01:46:24;;;;;;;4.90;3.43;;;10.10;99.90;;;;;;5072842;28;20189;-69
2021/10/18 01:48:50;;;;;;;3.73;3.17;;;10.10;99.90;;;;;;5072958;28;20174;-69
2021/10/18 01:51:15;;;;;;;3.13;2.83;;;10.10;99.90;;;;;;5073528;28;20194;-69
2021/10/18 01:53:41;;;;;;;4.03;3.60;;;10.20;99.90;;;;;;5093120;28;20165;-68
2021/10/18 01:56:06;;;;;;;5.20;4.10;;;10.20;99.90;;;;;;5093012;28;20177;-68
2021/10/18 01:58:32;;;;;;;5.23;3.47;;;10.20;99.90;;;;;;5093080;28;20166;-69
2021/10/18 02:01:02;;;;;;;3.77;3.40;;;10.20;99.90;;;;;;5092991;28;20184;-68
2021/10/18 02:03:28;;;;;;;9.60;3.50;;;10.20;99.90;;;;;;5092728;28;20295;-68
2021/10/18 02:05:53;;;;;;;4.87;4.37;;;10.20;99.90;;;;;;5092917;28;20866;-69
2021/10/18 02:08:19;;;;;;;7.00;4.10;;;10.20;99.90;;;;;;5092655;28;20182;-68
2021/10/18 02:10:44;;;;;;;3.87;3.43;;;10.20;99.90;;;;;;5092619;28;20161;-68
2021/10/18 02:13:10;;;;;;;4.73;3.93;;;10.30;99.90;;;;;;5092722;28;20169;-69
2021/10/18 02:15:36;;;;;;;3.40;2.80;;;10.20;99.90;;;;;;5092550;28;20640;-71
2021/10/18 02:18:02;;;;;;;7.50;3.60;;;10.30;99.90;;;;;;5092499;28;20208;-68
2021/10/18 02:20:28;;;;;;;3.50;3.10;;;10.20;99.90;;;;;;5091364;28;20411;-69
2021/10/18 02:22:54;;;;;;;4.57;3.00;;;10.20;99.90;;;;;;5092459;28;20419;-69
2021/10/18 02:25:19;;;;;;;3.07;2.63;;;10.20;99.90;;;;;;5092305;28;20193;-69
2021/10/18 02:27:44;;;;;;;3.33;3.00;;;10.20;99.90;;;;;;5092462;28;20607;-69
2021/10/18 02:30:11;;;;;;;3.97;3.30;;;10.20;99.90;;;;;;5092467;28;20165;-70
2021/10/18 02:32:38;;;;;;;2.50;2.30;;;10.20;99.90;;;;;;5092339;28;20158;-68
2021/10/18 02:35:05;;;;;;;4.40;2.43;;;10.20;99.90;;;;;;5092177;28;20843;-68
2021/10/18 02:37:31;;;;;;;2.50;2.30;;;10.20;99.90;;;;;;5092147;28;20489;-69
2021/10/18 02:39:56;;;;;;;3.87;2.57;;;10.20;99.90;;;;;;5092215;28;20808;-69
2021/10/18 02:42:22;;;;;;;2.63;2.13;;;10.30;99.90;;;;;;5092371;28;20185;-68
2021/10/18 02:44:47;;;;;;;2.00;1.90;;;10.30;99.90;;;;;;5090715;28;20223;-69
2021/10/18 02:47:13;;;;;;;2.87;2.23;;;10.30;99.90;;;;;;5091903;28;20226;-69
2021/10/18 02:49:39;;;;;;;3.20;2.10;;;10.30;99.90;;;;;;5092468;28;20162;-70
2021/10/18 02:52:04;;;;;;;4.30;2.60;;;10.30;99.90;;;;;;5092370;28;20172;-68
2021/10/18 02:54:30;;;;;;;3.10;2.27;;;10.30;99.90;;;;;;5091758;28;20169;-68
2021/10/18 02:56:56;;;;;;;3.33;2.20;;;10.30;99.90;;;;;;5092036;28;20216;-69
2021/10/18 02:59:21;;;;;;;2.47;2.20;;;10.30;99.90;;;;;;5091904;28;20173;-68
2021/10/18 03:01:47;;;;;;;2.10;1.53;;;10.20;99.90;;;;;;5091738;28;20494;-68
2021/10/18 03:04:12;;;;;;;2.57;2.37;;;10.30;99.90;;;;;;5091986;28;20647;-68
2021/10/18 03:06:38;;;;;;;3.63;2.13;;;10.20;99.90;;;;;;5091542;28;20221;-68
2021/10/18 03:09:03;;;;;;;1.80;1.70;;;10.30;99.90;;;;;;5091526;28;20192;-68
2021/10/18 03:11:29;;;;;;;2.20;2.00;;;10.30;99.90;;;;;;5091439;28;20185;-68
2021/10/18 03:13:55;;;;;;;3.63;1.80;;;10.30;99.90;;;;;;5091538;28;20664;-69
2021/10/18 03:16:20;;;;;;;2.90;2.27;;;10.30;99.90;;;;;;5091130;28;20597;-68
2021/10/18 03:18:46;;;;;;;2.40;2.20;;;10.30;99.90;;;;;;5090732;28;20189;-69
2021/10/18 03:21:12;;;;;;;4.50;2.80;;;10.30;99.90;;;;;;5090667;28;20170;-69
2021/10/18 03:23:37;;;;;;;1.73;1.63;;;10.30;99.90;;;;;;5091103;28;20237;-69
2021/10/18 03:26:03;;;;;;;3.93;2.07;;;10.30;99.90;;;;;;5091296;28;20519;-69
2021/10/18 03:28:29;;;;;;;3.17;2.90;;;10.40;99.90;;;;;;5091308;28;20591;-69
2021/10/18 03:30:54;;;;;;;2.23;1.80;;;10.30;99.90;;;;;;5091193;28;20173;-69
2021/10/18 03:33:20;;;;;;;4.20;1.70;;;10.30;99.90;;;;;;5091358;28;20456;-69
2021/10/18 03:35:45;;;;;;;2.87;2.47;;;10.40;99.90;;;;;;5091067;28;20173;-68
2021/10/18 03:38:11;;;;;;;4.67;2.00;;;10.40;99.90;;;;;;5090918;28;20189;-69
2021/10/18 03:40:37;;;;;;;1.60;1.50;;;10.40;99.90;;;;;;5091103;28;20177;-69
2021/10/18 03:43:03;;;;;;;1.80;1.70;;;10.40;99.90;;;;;;5091089;28;20165;-69
2021/10/18 03:45:28;;;;;;;2.33;1.73;;;10.40;99.90;;;;;;5090955;28;20236;-70
2021/10/18 03:47:54;;;;;;;1.73;1.63;;;10.40;99.90;;;;;;5090924;28;20185;-69
2021/10/18 03:50:19;;;;;;;2.30;2.10;;;10.40;99.90;;;;;;5088781;28;20188;-69
2021/10/18 03:52:45;;;;;;;2.40;2.20;;;10.40;99.90;;;;;;5084552;28;20595;-69
2021/10/18 03:55:11;;;;;;;2.70;2.00;;;10.40;99.90;;;;;;5090627;28;20166;-69
2021/10/18 03:57:36;;;;;;;4.73;2.60;;;10.40;99.90;;;;;;5090316;28;20189;-69
2021/10/18 04:00:04;;;;;;;2.07;1.93;;;10.40;99.90;;;;;;5090816;28;20870;-69
2021/10/18 04:02:29;;;;;;;4.10;2.47;;;10.40;99.90;;;;;;5090720;28;20215;-69
2021/10/18 04:04:55;;;;;;;2.50;2.13;;;10.40;99.90;;;;;;5090523;28;20447;-70
2021/10/18 04:07:20;;;;;;;2.60;2.10;;;10.40;99.90;;;;;;5086584;28;20218;-69
2021/10/18 04:09:47;;;;;;;2.30;2.03;;;10.40;99.90;;;;;;5090354;28;20161;-68
2021/10/18 04:12:13;;;;;;;7.00;2.43;;;10.40;99.90;;;;;;5090309;28;20157;-69
2021/10/18 04:14:38;;;;;;;2.60;2.40;;;10.40;99.90;;;;;;5090236;28;21027;-68
2021/10/18 04:17:04;;;;;;;1.93;1.70;;;10.40;99.90;;;;;;5090166;28;20313;-68
2021/10/18 04:19:29;;;;;;;1.50;1.40;;;10.50;99.90;;;;;;5090172;28;20186;-69
2021/10/18 04:21:55;;;;;;;1.50;1.40;;;10.40;99.90;;;;;;5088819;28;20254;-68
2021/10/18 04:24:20;;;;;;;2.00;1.53;;;10.50;99.90;;;;;;5090039;28;20197;-68
2021/10/18 04:26:46;;;;;;;3.00;2.60;;;10.50;99.90;;;;;;5090062;28;20178;-70
2021/10/18 04:29:12;;;;;;;1.70;1.57;;;10.50;99.90;;;;;;5090095;28;20173;-69
2021/10/18 04:31:37;;;;;;;3.77;1.70;;;10.50;99.90;;;;;;5089975;28;20173;-68
2021/10/18 04:34:03;;;;;;;5.20;1.83;;;10.50;99.90;;;;;;5089914;28;20182;-68
2021/10/18 04:36:28;;;;;;;3.87;2.50;;;10.50;99.90;;;;;;5089833;28;20182;-69
2021/10/18 04:38:54;;;;;;;4.10;2.40;;;10.50;99.90;;;;;;5089876;28;20735;-68
2021/10/18 04:41:20;;;;;;;2.40;1.90;;;10.50;99.90;;;;;;5089824;28;20235;-69
2021/10/18 04:43:45;;;;;;;2.90;1.57;;;10.50;99.90;;;;;;5088375;28;20411;-68
2021/10/18 04:46:11;;;;;;;1.50;1.30;;;10.50;99.90;;;;;;5089685;28;20177;-68
2021/10/18 04:48:37;;;;;;;2.13;1.70;;;10.50;99.90;;;;;;5089960;28;20162;-68
2021/10/18 04:51:02;;;;;;;1.60;1.50;;;10.40;99.90;;;;;;5089524;28;20400;-69
2021/10/18 04:53:28;;;;;;;1.60;1.50;;;10.40;99.90;;;;;;5089677;28;20212;-70
2021/10/18 04:55:54;;;;;;;1.30;1.20;;;10.40;99.90;;;;;;5088449;28;20268;-69
2021/10/18 04:58:19;;;;;;;2.60;2.00;;;10.40;99.90;;;;;;5089753;28;20686;-68
2021/10/18 05:00:47;;;;;;;3.20;1.43;;;10.40;99.90;;;;;;5089714;28;20283;-68
2021/10/18 05:03:12;;;;;;;2.10;1.87;;;10.40;99.90;;;;;;5089927;28;20180;-69
2021/10/18 05:05:39;;;;;;;2.27;1.80;;;10.40;99.90;;;;;;5089507;28;20538;-68
2021/10/18 05:08:07;;;;;;;2.30;2.10;;;10.30;99.90;;;;;;5090261;28;20178;-69
2021/10/18 05:10:34;;;;;;;2.80;2.07;;;10.30;99.90;;;;;;5094167;28;20795;-70
2021/10/18 05:13:00;;;;;;;1.67;1.47;;;10.30;99.90;;;;;;5093682;28;20404;-69
2021/10/18 05:15:26;;;;;;;2.17;2.00;;;10.30;99.90;;;;;;5093603;28;20472;-69
2021/10/18 05:17:51;;;;;;;4.60;2.40;;;10.30;99.90;;;;;;5093457;28;20622;-69
2021/10/18 05:20:17;;;;;;;2.10;1.87;;;10.30;99.90;;;;;;5093849;28;20489;-69
2021/10/18 05:22:42;;;;;;;2.23;2.00;;;10.30;99.90;;;;;;5093709;28;20693;-68
2021/10/18 05:25:08;;;;;;;2.67;2.40;;;10.30;99.90;;;;;;5093400;28;20297;-69
2021/10/18 05:27:36;;;;;;;3.13;2.83;;;10.20;99.90;;;;;;5093661;28;20189;-68
2021/10/18 05:30:02;;;;;;;2.60;2.20;;;10.20;99.90;;;;;;5093659;28;20396;-70
2021/10/18 05:32:27;;;;;;;4.27;2.30;;;10.10;99.90;;;;;;5093824;28;20988;-69
2021/10/18 05:34:53;;;;;;;1.43;1.33;;;10.10;99.90;;;;;;5093437;28;20415;-69
2021/10/18 05:37:18;;;;;;;4.83;1.83;;;10.00;99.90;;;;;;5093388;28;20182;-69
2021/10/18 05:39:44;;;;;;;3.53;2.00;;;10.00;99.90;;;;;;5093453;28;20584;-69
2021/10/18 05:42:09;;;;;;;2.37;2.17;;;10.00;99.90;;;;;;5092029;28;20192;-70
2021/10/18 05:44:35;;;;;;;2.93;2.40;;;10.00;99.90;;;;;;5093164;28;20331;-69
2021/10/18 05:47:00;;;;;;;3.77;2.00;;;9.90;99.90;;;;;;5093369;28;20186;-69
2021/10/18 05:49:26;;;;;;;2.50;2.30;;;9.90;99.90;;;;;;5093146;28;20229;-69
2021/10/18 05:51:52;;;;;;;4.33;2.03;;;9.90;99.90;;;;;;5092923;28;20165;-69
2021/10/18 05:54:17;;;;;;;6.83;2.10;;;9.90;99.90;;;;;;5093090;28;20172;-69
2021/10/18 05:56:43;;;;;;;1.57;1.33;;;9.80;99.90;;;;;;5092919;28;20423;-68
2021/10/18 05:59:08;;;;;;;2.10;1.77;;;9.90;99.90;;;;;;5093091;28;20197;-69
2021/10/18 06:01:34;;;;;;;1.77;1.60;;;9.90;99.90;;;;;;5093088;28;20174;-70
2021/10/18 06:04:02;;;;;;;2.07;1.87;;;9.90;99.90;;;;;;5092734;28;20201;-69
2021/10/18 06:06:31;;;;;;;1.73;1.63;;;9.90;99.90;;;;;;5093005;28;20181;-69
2021/10/18 06:08:56;;;;;;;3.27;2.27;;;9.90;99.90;;;;;;5093140;28;20396;-69
2021/10/18 06:11:22;;;;;;;1.50;1.40;;;10.00;99.90;;;;;;5092658;28;20914;-69
2021/10/18 06:13:47;;;;;;;2.10;1.90;;;10.10;99.90;;;;;;5092796;28;20235;-69
2021/10/18 06:16:13;;;;;;;3.53;1.80;;;10.20;99.90;;;;;;5092663;28;20201;-69
2021/10/18 06:18:38;;;;;;;1.70;1.60;;;10.20;99.90;;;;;;5092414;28;20625;-70
2021/10/18 06:21:04;;;;;;;1.97;1.80;;;10.30;99.90;;;;;;5076286;28;20178;-68
2021/10/18 06:23:29;;;;;;;1.90;1.80;;;10.30;99.90;;;;;;5072410;28;20194;-69
2021/10/18 06:25:55;;;;;;;1.67;1.57;;;10.40;99.90;;;;;;5072275;28;20620;-69
2021/10/18 06:28:21;;;;;;;1.50;1.40;;;10.50;99.90;;;;;;5072284;28;20224;-69
2021/10/18 06:30:46;;;;;;;1.67;1.57;;;10.60;99.90;;;;;;5072349;28;20162;-68
2021/10/18 06:33:12;;;;;;;4.27;2.07;;;10.60;99.90;;;;;;5072106;28;20777;-69
2021/10/18 06:35:38;;;;;;;1.80;1.53;;;10.70;99.90;;;;;;5071978;28;20202;-69
2021/10/18 06:38:20;;;;;;;3.00;2.13;;;10.70;99.90;;;;;;5072040;28;20233;-69
2021/10/18 06:40:46;;;;;;;6.00;1.60;;;10.80;99.90;;;;;;5072254;28;20465;-71
2021/10/18 06:43:12;;;;;;;2.27;1.83;;;10.70;99.90;;;;;;5079173;28;20439;-70
2021/10/18 06:45:39;;;;;;;2.13;1.50;;;10.70;99.90;;;;;;5091775;28;20829;-70
2021/10/18 06:48:07;;;;;;;2.10;1.73;;;10.80;99.90;;;;;;5092155;28;21063;-69
2021/10/18 06:50:34;;;;;;;2.83;1.90;;;10.80;99.90;;;;;;5092460;28;20445;-69
2021/10/18 06:52:59;;;;;;;1.50;1.40;;;11.30;99.90;;;;;;5091817;28;20789;-69
2021/10/18 06:55:27;;;;;;;1.67;1.57;;;11.70;99.90;;;;;;5091884;28;20403;-70
2021/10/18 06:57:53;;;;;;;1.27;1.17;;;11.50;99.90;;;;;;5091901;28;20198;-69
2021/10/18 07:00:18;;;;;;;5.90;1.67;;;11.50;99.90;;;;;;5088245;28;20442;-70
2021/10/18 07:02:44;;;;;;;1.43;1.33;;;11.60;99.90;;;;;;5091821;28;20185;-71
2021/10/18 07:05:09;;;;;;;2.00;1.60;;;11.70;99.90;;;;;;5089804;28;20201;-69
2021/10/18 07:07:37;;;;;;;2.10;1.60;;;11.80;99.90;;;;;;5083533;28;20205;-70
2021/10/18 07:10:04;;;;;;;2.10;1.57;;;11.90;99.90;;;;;;5071583;28;20580;-70
2021/10/18 07:12:31;;;;;;;2.90;1.67;;;11.90;99.90;;;;;;5071486;28;20484;-69
2021/10/18 07:14:58;;;;;;;2.30;2.10;;;11.70;99.90;;;;;;5072153;28;20503;-68
2021/10/18 07:17:24;;;;;;;1.50;1.40;;;11.90;99.90;;;;;;5086432;28;20513;-70
2021/10/18 07:19:51;;;;;;;2.37;1.27;;;12.10;99.90;;;;;;5080581;28;20420;-69
2021/10/18 07:22:18;;;;;;;3.43;2.13;;;12.40;99.90;;;;;;5071254;28;20415;-70
2021/10/18 07:24:44;;;;;;;5.00;2.33;;;12.50;99.90;;;;;;5088690;28;20443;-69
2021/10/18 07:27:10;;;;;;;5.40;2.80;;;12.70;99.90;;;;;;5091193;28;20426;-70
2021/10/18 07:29:35;;;;;;;15.23;5.23;;;13.00;99.90;;;;;;5091234;28;20674;-69
2021/10/18 07:32:00;;;;;;;14.70;7.80;;;13.50;99.90;;;;;;5090458;28;20163;-71
2021/10/18 07:34:26;;;;;;;10.57;4.90;;;13.40;99.90;;;;;;5072591;28;20213;-69
2021/10/18 07:36:52;;;;;;;9.80;4.57;;;13.50;99.90;;;;;;5084929;28;20204;-69
2021/10/18 07:39:20;;;;;;;4.00;3.00;;;13.30;99.90;;;;;;5091049;28;20175;-69
2021/10/18 07:41:48;;;;;;;3.30;2.70;;;13.30;99.90;;;;;;5090939;28;20182;-69
2021/10/18 07:44:14;;;;;;;4.40;2.60;;;13.50;99.90;;;;;;5090885;28;20453;-69
2021/10/18 07:46:40;;;;;;;2.80;1.70;;;13.40;99.90;;;;;;5090998;28;20944;-70
2021/10/18 07:49:06;;;;;;;1.70;1.60;;;13.20;99.90;;;;;;5090990;28;20212;-69
2021/10/18 07:51:31;;;;;;;2.33;1.67;;;13.20;99.90;;;;;;5090743;28;20418;-69
2021/10/18 07:53:57;;;;;;;1.63;1.53;;;13.10;99.90;;;;;;5090810;28;20171;-68
2021/10/18 07:56:22;;;;;;;3.10;1.57;;;12.90;99.90;;;;;;5090824;28;20177;-69
2021/10/18 07:58:48;;;;;;;2.87;2.13;;;12.70;99.90;;;;;;5090647;28;20238;-71
2021/10/18 08:01:13;;;;;;;1.67;1.20;;;12.70;99.90;;;;;;5090508;28;20231;-71
2021/10/18 08:03:39;;;;;;;1.67;1.30;;;12.80;99.90;;;;;;5090631;28;20183;-68
2021/10/18 08:06:04;;;;;;;2.27;1.50;;;13.00;99.90;;;;;;5090590;28;20165;-70
2021/10/18 08:08:31;;;;;;;1.77;1.40;;;13.10;99.90;;;;;;5090563;28;20263;-69
2021/10/18 08:10:57;;;;;;;1.77;1.67;;;13.20;99.90;;;;;;5090474;28;20173;-69
2021/10/18 08:13:23;;;;;;;1.63;1.53;;;13.20;99.90;;;;;;5083208;28;20996;-69
2021/10/18 08:15:49;;;;;;;1.80;1.40;;;13.20;99.90;;;;;;5090307;28;20440;-69
2021/10/18 08:18:14;;;;;;;1.87;1.70;;;13.10;99.90;;;;;;5090232;28;20217;-71
2021/10/18 08:20:42;;;;;;;3.23;2.40;;;13.20;99.90;;;;;;5090623;28;20170;-69
2021/10/18 08:23:10;;;;;;;3.10;2.90;;;13.00;99.90;;;;;;5088785;28;20268;-69
2021/10/18 08:25:40;;;;;;;2.20;2.00;;;13.10;99.90;;;;;;5090165;28;20444;-70
2021/10/18 08:28:05;;;;;;;2.40;2.03;;;13.10;99.90;;;;;;5086977;28;20556;-70
2021/10/18 08:30:33;;;;;;;3.43;2.73;;;13.30;99.90;;;;;;5096419;28;20512;-70
2021/10/18 08:32:59;;;;;;;4.30;2.70;;;13.20;99.90;;;;;;5090951;28;20169;-70
2021/10/18 08:35:24;;;;;;;2.27;2.07;;;13.30;99.90;;;;;;5083444;28;20421;-71
2021/10/18 08:40:38;;;;;;;4.37;2.27;;;13.30;99.90;;;;;;5082174;28;20207;-71
2021/10/18 08:45:54;;;;;;;3.07;2.20;;;13.50;99.90;;;;;;5062486;28;20819;-71
2021/10/18 08:48:19;;;;;;;2.03;1.93;;;13.50;99.90;;;;;;5087448;28;20450;-71
2021/10/18 08:50:47;;;;;;;2.87;1.63;;;13.30;99.90;;;;;;5088365;28;20415;-71
2021/10/18 08:53:13;;;;;;;3.57;1.67;;;13.30;99.90;;;;;;5086794;28;20174;-68
2021/10/18 08:55:39;;;;;;;4.60;1.90;;;13.50;99.90;;;;;;5090293;28;20426;-70
2021/10/18 08:58:06;;;;;;;1.60;1.30;;;13.70;99.90;;;;;;5091007;28;20190;-70
2021/10/18 09:00:48;;;;;;;2.93;1.67;;;13.80;99.90;;;;;;5082998;28;20422;-69
2021/10/18 09:03:23;;;;;;;1.93;1.73;;;13.90;99.90;;;;;;5087549;28;20420;-71
2021/10/18 09:05:50;;;;;;;2.30;1.23;;;13.90;99.90;;;;;;5082008;28;20502;-70
2021/10/18 09:08:35;;;;;;;3.20;1.23;;;14.10;99.90;;;;;;5083681;28;20449;-72
2021/10/18 09:11:06;;;;;;;4.17;2.37;;;14.10;99.90;;;;;;5087038;28;20416;-70
2021/10/18 09:13:32;;;;;;;1.40;1.30;;;14.00;99.90;;;;;;5087264;28;20402;-71
2021/10/18 09:15:57;;;;;;;2.30;1.50;;;14.30;99.90;;;;;;5087681;28;20967;-70
2021/10/18 09:18:23;;;;;;;1.57;1.47;;;14.40;99.90;;;;;;5082715;28;20473;-69
2021/10/18 09:20:49;;;;;;;1.77;1.50;;;14.50;99.90;;;;;;5091227;28;20673;-69
2021/10/18 09:23:17;;;;;;;1.73;1.37;;;14.60;99.90;;;;;;5090564;28;20590;-69
2021/10/18 09:25:43;;;;;;;1.77;1.50;;;14.80;99.90;;;;;;5082021;28;20451;-69
2021/10/18 09:28:14;;;;;;;3.73;1.47;;;14.80;99.90;;;;;;5087640;28;20488;-70
2021/10/18 09:30:42;;;;;;;2.83;1.27;;;14.80;99.90;;;;;;5084252;28;20172;-68
2021/10/18 09:33:14;;;;;;;2.07;1.27;;;14.70;99.90;;;;;;5084211;28;20950;-70
2021/10/18 09:35:41;;;;;;;2.37;1.40;;;14.70;99.90;;;;;;5087693;28;20851;-68
2021/10/18 09:38:11;;;;;;;1.93;1.53;;;14.50;99.90;;;;;;5087865;28;20439;-70
2021/10/18 09:40:40;;;;;;;1.83;1.43;;;14.80;99.90;;;;;;5089897;28;20429;-70
2021/10/18 09:43:14;;;;;;;1.53;1.30;;;15.10;99.90;;;;;;5086723;28;20478;-69
2021/10/18 09:46:02;;;;;;;2.70;1.53;;;15.20;99.90;;;;;;5079930;28;20532;-71
2021/10/18 10:51:10;;;;;;;2.67;1.80;;;15.50;99.90;;;;;;5080077;28;20406;-70
2021/10/18 10:56:43;;;;;;;2.30;1.90;;;15.20;99.90;;;;;;5086520;28;20418;-69
2021/10/18 10:59:44;;;;;;;2.70;1.50;;;15.00;99.90;;;;;;5087294;28;20810;-69
2021/10/18 11:02:09;;;;;;;1.37;1.27;;;15.00;99.90;;;;;;5087045;28;20409;-69
2021/10/18 11:04:35;;;;;;;1.53;1.23;;;14.90;99.90;;;;;;5084038;28;20511;-70
2021/10/18 11:07:06;;;;;;;3.17;1.10;;;14.80;99.90;;;;;;5091681;28;20796;-69
2021/10/18 11:09:44;;;;;;;2.07;1.60;;;15.00;99.90;;;;;;5080937;28;20420;-69
2021/10/18 11:12:31;;;;;;;1.67;1.20;;;15.20;99.90;;;;;;5085267;28;20967;-69
2021/10/18 11:14:58;;;;;;;1.83;1.40;;;15.20;99.90;;;;;;5084262;28;20449;-69
2021/10/18 11:17:25;;;;;;;1.50;1.40;;;15.20;99.90;;;;;;5087690;28;20955;-69
2021/10/18 11:19:53;;;;;;;1.43;1.33;;;15.10;99.90;;;;;;5088329;28;20460;-70
2021/10/18 11:22:26;;;;;;;1.80;1.50;;;15.00;99.90;;;;;;5088357;28;20420;-69
2021/10/18 11:24:51;;;;;;;3.13;1.47;;;15.10;99.90;;;;;;5087495;28;20442;-70
2021/10/18 11:27:25;;;;;;;1.77;1.37;;;15.30;99.90;;;;;;5088878;28;20437;-70
2021/10/18 11:29:55;;;;;;;2.50;1.77;;;15.50;99.90;;;;;;5090158;28;20195;-70
2021/10/18 11:32:22;;;;;;;2.23;1.57;;;15.70;99.90;;;;;;5088941;28;20423;-70
2021/10/18 11:34:48;;;;;;;1.30;1.20;;;15.70;99.90;;;;;;5089471;28;20431;-70
2021/10/18 11:37:13;;;;;;;1.60;1.50;;;15.80;99.90;;;;;;5089200;28;20465;-69
2021/10/18 11:39:39;;;;;;;2.30;1.33;;;15.80;99.90;;;;;;5092989;28;20175;-69
2021/10/18 11:42:07;;;;;;;1.33;1.20;;;15.90;99.90;;;;;;5088757;28;20171;-70
2021/10/18 11:44:52;;;;;;;1.93;1.60;;;15.70;99.90;;;;;;5084575;28;20702;-69
2021/10/18 11:47:31;;;;;;;1.30;1.20;;;15.70;99.90;;;;;;5084797;28;20942;-70
2021/10/18 11:50:18;;;;;;;2.03;1.40;;;15.70;99.90;;;;;;5083649;28;20414;-70
2021/10/18 11:52:50;;;;;;;1.67;1.10;;;16.00;99.90;;;;;;5080306;28;20422;-71
2021/10/18 11:55:26;;;;;;;2.53;1.50;;;15.90;99.90;;;;;;5087838;28;20417;-70
2021/10/18 11:57:52;;;;;;;2.23;1.40;;;15.90;99.90;;;;;;5087363;28;20434;-69
2021/10/18 12:00:27;;;;;;;1.57;1.17;;;16.00;99.90;;;;;;5083802;28;20411;-69
2021/10/18 12:02:59;;;;;;;1.20;1.10;;;15.90;99.90;;;;;;5088834;28;20438;-70
2021/10/18 12:05:25;;;;;;;1.43;1.10;;;15.70;99.90;;;;;;5090751;28;21018;-69
2021/10/18 12:07:51;;;;;;;1.33;0.97;;;15.90;99.90;;;;;;5091649;28;20433;-71
2021/10/18 12:10:28;;;;;;;2.83;1.43;;;15.80;99.90;;;;;;5083262;28;20418;-71
2021/10/18 12:13:20;;;;;;;1.13;1.00;;;16.00;99.90;;;;;;5080169;28;20422;-69
2021/10/18 12:15:59;;;;;;;1.30;1.20;;;16.00;99.90;;;;;;5080458;28;20457;-70
2021/10/18 12:18:28;;;;;;;1.60;1.20;;;16.20;99.90;;;;;;5084633;28;20457;-70
2021/10/18 12:20:56;;;;;;;1.13;1.03;;;16.00;99.90;;;;;;5085016;28;20428;-69
2021/10/18 12:23:24;;;;;;;1.83;1.30;;;16.00;99.90;;;;;;5086674;28;20819;-71
2021/10/18 12:26:13;;;;;;;1.10;1.00;;;16.30;99.90;;;;;;5089083;28;20546;-74
2021/10/18 12:28:41;;;;;;;1.20;1.10;;;16.20;99.90;;;;;;5083829;28;20752;-71
2021/10/18 12:31:33;;;;;;;8.13;4.53;;;16.30;99.90;;;;;;5083966;28;20414;-72
2021/10/18 12:34:21;;;;;;;1.83;1.40;;;16.30;99.90;;;;;;5082833;28;20412;-73
2021/10/18 12:37:06;;;;;;;8.53;7.03;;;16.10;99.90;;;;;;5083754;28;22016;-71
2021/10/18 12:39:50;;;;;;;3.03;1.20;;;16.50;99.90;;;;;;5091767;28;20418;-71
2021/10/18 12:42:27;;;;;;;1.40;1.30;;;16.50;99.90;;;;;;5091740;28;20490;-74
2021/10/18 12:45:12;;;;;;;2.87;2.23;;;16.40;99.90;;;;;;5083862;28;20459;-78
2021/10/18 12:47:40;;;;;;;1.87;1.00;;;16.50;99.90;;;;;;5080818;28;20435;-69
2021/10/18 12:50:07;;;;;;;1.17;1.00;;;16.70;99.90;;;;;;5081988;28;20413;-68
2021/10/18 12:52:39;;;;;;;1.63;1.20;;;16.50;99.90;;;;;;5085972;28;20431;-67
2021/10/18 12:55:24;;;;;;;1.80;1.43;;;16.40;99.90;;;;;;5087544;28;20418;-67
2021/10/18 12:58:01;;;;;;;1.77;1.47;;;16.60;99.90;;;;;;5084767;28;20435;-70
2021/10/18 13:00:37;;;;;;;1.17;1.07;;;16.60;99.90;;;;;;5088002;28;20424;-69
2021/10/18 13:03:09;;;;;;;1.67;1.27;;;16.20;99.90;;;;;;5089813;28;20511;-69
2021/10/18 13:05:41;;;;;;;1.20;1.00;;;16.20;99.90;;;;;;5082860;28;20481;-69
2021/10/18 13:08:08;;;;;;;1.63;1.20;;;16.40;99.90;;;;;;5090671;28;20485;-68
2021/10/18 13:10:39;;;;;;;1.87;1.10;;;16.40;99.90;;;;;;5080222;28;20932;-68
2021/10/18 13:13:06;;;;;;;1.00;0.90;;;16.50;99.90;;;;;;5080738;28;20435;-68
2021/10/18 13:15:33;;;;;;;1.10;0.93;;;16.50;99.90;;;;;;5087079;28;20435;-68
2021/10/18 13:17:58;;;;;;;1.30;1.20;;;16.60;99.90;;;;;;5085589;28;20448;-68
2021/10/18 13:20:26;;;;;;;3.07;1.37;;;16.30;99.90;;;;;;5086198;28;20780;-68
2021/10/18 13:22:53;;;;;;;1.03;0.93;;;16.30;99.90;;;;;;5086060;28;20199;-68
2021/10/18 13:25:20;;;;;;;1.83;1.17;;;16.40;99.90;;;;;;5085140;28;20450;-69
2021/10/18 13:27:46;;;;;;;1.00;0.90;;;16.50;99.90;;;;;;5089105;28;20456;-68
2021/10/18 13:30:12;;;;;;;2.50;1.07;;;16.50;99.90;;;;;;5080491;28;20424;-69
2021/10/18 13:32:39;;;;;;;2.73;0.97;;;16.40;99.90;;;;;;5091055;28;20169;-68
2021/10/18 13:35:06;;;;;;;1.10;1.00;;;16.30;99.90;;;;;;5089614;28;20415;-68
2021/10/18 13:37:32;;;;;;;1.00;0.90;;;16.20;99.90;;;;;;5092890;28;20489;-70
2021/10/18 13:39:57;;;;;;;1.20;1.10;;;16.10;99.90;;;;;;5094074;28;20928;-70
2021/10/18 13:42:23;;;;;;;1.17;1.00;;;16.20;99.90;;;;;;5094470;28;20486;-68
2021/10/18 13:44:50;;;;;;;0.80;0.80;;;16.20;99.90;;;;;;5086767;28;20225;-69
2021/10/18 13:47:15;;;;;;;1.60;1.27;;;16.00;99.90;;;;;;5086972;28;20849;-70
2021/10/18 13:49:41;;;;;;;0.93;0.90;;;16.10;99.90;;;;;;5092563;28;20486;-74
2021/10/18 13:52:07;;;;;;;1.10;0.87;;;16.00;99.90;;;;;;5085681;28;20181;-72
2021/10/18 13:54:33;;;;;;;1.40;1.00;;;16.10;99.90;;;;;;5089901;28;20211;-71
2021/10/18 13:56:59;;;;;;;1.00;0.90;;;16.00;99.90;;;;;;5090797;28;20291;-75
2021/10/18 13:59:25;;;;;;;1.23;0.90;;;15.90;99.90;;;;;;5091488;28;20857;-76
2021/10/18 14:01:50;;;;;;;1.53;1.43;;;15.90;99.90;;;;;;5091368;28;20504;-73